sensor_id;sensor_type;location;lat;lon;timestamp;temperature;humidity
16863;DHT22;52193;48.216;-1.698;2023-09-12T00:01:23;23.80;97.70
16863;DHT22;52193;48.216;-1.698;2023-09-12T00:03:50;23.80;97.80
16863;DHT22;52193;48.216;-1.698;2023-09-12T00:06:17;23.80;97.80
16863;DHT22;52193;48.216;-1.698;2023-09-12T00:08:44;23.70;97.80
16863;DHT22;52193;48.216;-1.698;2023-09-12T00:11:11;23.70;97.80
16863;DHT22;52193;48.216;-1.698;2023-09-12T00:13:40;23.70;97.90
16863;DHT22;52193;48.216;-1.698;2023-09-12T00:16:07;23.70;97.90
16863;DHT22;52193;48.216;-1.698;2023-09-12T00:18:35;23.70;97.90
16863;DHT22;52193;48.216;-1.698;2023-09-12T00:21:02;23.70;98.00
16863;DHT22;52193;48.216;-1.698;2023-09-12T00:23:29;23.70;98.00
16863;DHT22;52193;48.216;-1.698;2023-09-12T00:25:56;23.70;98.10
16863;DHT22;52193;48.216;-1.698;2023-09-12T00:28:23;23.60;98.10
16863;DHT22;52193;48.216;-1.698;2023-09-12T00:30:53;23.60;98.10
16863;DHT22;52193;48.216;-1.698;2023-09-12T00:33:20;23.60;98.20
16863;DHT22;52193;48.216;-1.698;2023-09-12T00:35:46;23.60;98.20
16863;DHT22;52193;48.216;-1.698;2023-09-12T00:38:13;23.60;98.30
16863;DHT22;52193;48.216;-1.698;2023-09-12T00:40:40;23.60;98.30
16863;DHT22;52193;48.216;-1.698;2023-09-12T00:43:07;23.60;98.40
16863;DHT22;52193;48.216;-1.698;2023-09-12T00:45:35;23.60;98.40
16863;DHT22;52193;48.216;-1.698;2023-09-12T00:48:05;23.60;98.50
16863;DHT22;52193;48.216;-1.698;2023-09-12T00:50:32;23.60;98.60
16863;DHT22;52193;48.216;-1.698;2023-09-12T00:53:01;23.60;98.60
16863;DHT22;52193;48.216;-1.698;2023-09-12T00:55:31;23.60;98.70
16863;DHT22;52193;48.216;-1.698;2023-09-12T00:57:59;23.60;98.70
16863;DHT22;52193;48.216;-1.698;2023-09-12T01:00:28;23.60;98.70
16863;DHT22;52193;48.216;-1.698;2023-09-12T01:02:55;23.50;98.70
16863;DHT22;52193;48.216;-1.698;2023-09-12T01:05:24;23.50;98.70
16863;DHT22;52193;48.216;-1.698;2023-09-12T01:07:51;23.50;98.70
16863;DHT22;52193;48.216;-1.698;2023-09-12T01:10:18;23.50;98.80
16863;DHT22;52193;48.216;-1.698;2023-09-12T01:12:44;23.50;98.80
16863;DHT22;52193;48.216;-1.698;2023-09-12T01:15:11;23.50;98.90
16863;DHT22;52193;48.216;-1.698;2023-09-12T01:17:41;23.50;98.90
16863;DHT22;52193;48.216;-1.698;2023-09-12T01:20:14;23.50;98.90
16863;DHT22;52193;48.216;-1.698;2023-09-12T01:22:55;23.50;98.90
16863;DHT22;52193;48.216;-1.698;2023-09-12T01:25:59;23.50;98.90
16863;DHT22;52193;48.216;-1.698;2023-09-12T01:28:30;23.40;98.90
16863;DHT22;52193;48.216;-1.698;2023-09-12T01:30:58;23.40;98.90
16863;DHT22;52193;48.216;-1.698;2023-09-12T01:33:26;23.40;98.80
16863;DHT22;52193;48.216;-1.698;2023-09-12T01:35:53;23.40;98.80
16863;DHT22;52193;48.216;-1.698;2023-09-12T01:38:21;23.40;98.70
16863;DHT22;52193;48.216;-1.698;2023-09-12T01:40:49;23.40;98.60
16863;DHT22;52193;48.216;-1.698;2023-09-12T01:43:19;23.30;98.50
16863;DHT22;52193;48.216;-1.698;2023-09-12T01:45:48;23.30;98.50
16863;DHT22;52193;48.216;-1.698;2023-09-12T01:48:19;23.30;98.50
16863;DHT22;52193;48.216;-1.698;2023-09-12T01:50:46;23.30;98.70
16863;DHT22;52193;48.216;-1.698;2023-09-12T01:53:14;23.20;98.70
16863;DHT22;52193;48.216;-1.698;2023-09-12T01:55:42;23.20;98.70
16863;DHT22;52193;48.216;-1.698;2023-09-12T01:58:10;23.20;98.80
16863;DHT22;52193;48.216;-1.698;2023-09-12T02:00:38;23.20;98.90
16863;DHT22;52193;48.216;-1.698;2023-09-12T02:03:06;23.20;99.00
16863;DHT22;52193;48.216;-1.698;2023-09-12T02:05:33;23.20;99.00
16863;DHT22;52193;48.216;-1.698;2023-09-12T02:08:00;23.20;99.10
16863;DHT22;52193;48.216;-1.698;2023-09-12T02:10:27;23.20;99.20
16863;DHT22;52193;48.216;-1.698;2023-09-12T02:12:54;23.20;99.20
16863;DHT22;52193;48.216;-1.698;2023-09-12T02:15:21;23.20;99.30
16863;DHT22;52193;48.216;-1.698;2023-09-12T02:17:48;23.10;99.30
16863;DHT22;52193;48.216;-1.698;2023-09-12T02:20:17;23.10;99.30
16863;DHT22;52193;48.216;-1.698;2023-09-12T02:22:45;23.10;99.30
16863;DHT22;52193;48.216;-1.698;2023-09-12T02:25:12;23.10;99.30
16863;DHT22;52193;48.216;-1.698;2023-09-12T02:27:39;23.10;99.40
16863;DHT22;52193;48.216;-1.698;2023-09-12T02:30:06;23.10;99.40
16863;DHT22;52193;48.216;-1.698;2023-09-12T02:32:34;23.10;99.40
16863;DHT22;52193;48.216;-1.698;2023-09-12T02:35:01;23.10;99.40
16863;DHT22;52193;48.216;-1.698;2023-09-12T02:37:29;23.00;99.40
16863;DHT22;52193;48.216;-1.698;2023-09-12T02:39:56;23.00;99.40
16863;DHT22;52193;48.216;-1.698;2023-09-12T02:42:23;23.00;99.50
16863;DHT22;52193;48.216;-1.698;2023-09-12T02:44:50;23.00;99.50
16863;DHT22;52193;48.216;-1.698;2023-09-12T02:47:19;23.00;99.50
16863;DHT22;52193;48.216;-1.698;2023-09-12T02:49:46;23.00;99.60
16863;DHT22;52193;48.216;-1.698;2023-09-12T02:52:12;23.00;99.90
16863;DHT22;52193;48.216;-1.698;2023-09-12T02:54:41;23.00;99.60
16863;DHT22;52193;48.216;-1.698;2023-09-12T02:57:08;22.90;99.60
16863;DHT22;52193;48.216;-1.698;2023-09-12T02:59:35;22.90;99.60
16863;DHT22;52193;48.216;-1.698;2023-09-12T03:02:02;22.90;99.70
16863;DHT22;52193;48.216;-1.698;2023-09-12T03:04:29;22.90;99.70
16863;DHT22;52193;48.216;-1.698;2023-09-12T03:06:56;22.90;99.80
16863;DHT22;52193;48.216;-1.698;2023-09-12T03:09:23;22.90;99.80
16863;DHT22;52193;48.216;-1.698;2023-09-12T03:11:52;22.90;99.80
16863;DHT22;52193;48.216;-1.698;2023-09-12T03:14:19;22.90;99.90
16863;DHT22;52193;48.216;-1.698;2023-09-12T03:16:46;22.90;99.90
16863;DHT22;52193;48.216;-1.698;2023-09-12T03:19:13;22.90;99.90
16863;DHT22;52193;48.216;-1.698;2023-09-12T03:21:40;22.80;99.90
16863;DHT22;52193;48.216;-1.698;2023-09-12T03:24:07;22.80;99.90
16863;DHT22;52193;48.216;-1.698;2023-09-12T03:26:35;22.80;99.90
16863;DHT22;52193;48.216;-1.698;2023-09-12T03:29:04;22.80;99.90
16863;DHT22;52193;48.216;-1.698;2023-09-12T03:31:31;22.80;99.90
16863;DHT22;52193;48.216;-1.698;2023-09-12T03:33:58;22.80;99.90
16863;DHT22;52193;48.216;-1.698;2023-09-12T03:36:25;22.80;99.90
16863;DHT22;52193;48.216;-1.698;2023-09-12T03:38:52;22.80;99.90
16863;DHT22;52193;48.216;-1.698;2023-09-12T03:41:19;22.80;99.90
16863;DHT22;52193;48.216;-1.698;2023-09-12T03:43:47;22.90;99.90
16863;DHT22;52193;48.216;-1.698;2023-09-12T03:46:16;22.80;99.90
16863;DHT22;52193;48.216;-1.698;2023-09-12T03:48:43;22.80;99.90
16863;DHT22;52193;48.216;-1.698;2023-09-12T03:51:09;22.80;99.90
16863;DHT22;52193;48.216;-1.698;2023-09-12T03:53:36;22.80;99.90
16863;DHT22;52193;48.216;-1.698;2023-09-12T03:56:04;22.80;99.90
16863;DHT22;52193;48.216;-1.698;2023-09-12T03:58:31;22.80;99.90
16863;DHT22;52193;48.216;-1.698;2023-09-12T04:00:58;22.80;99.90
16863;DHT22;52193;48.216;-1.698;2023-09-12T04:03:27;22.80;99.90
16863;DHT22;52193;48.216;-1.698;2023-09-12T04:05:53;22.80;99.90
16863;DHT22;52193;48.216;-1.698;2023-09-12T04:08:20;22.80;99.90
16863;DHT22;52193;48.216;-1.698;2023-09-12T04:10:47;22.80;99.90
16863;DHT22;52193;48.216;-1.698;2023-09-12T04:13:14;22.80;99.90
16863;DHT22;52193;48.216;-1.698;2023-09-12T04:15:41;22.80;99.90
16863;DHT22;52193;48.216;-1.698;2023-09-12T04:18:08;22.80;99.90
16863;DHT22;52193;48.216;-1.698;2023-09-12T04:20:36;22.80;99.90
16863;DHT22;52193;48.216;-1.698;2023-09-12T04:23:04;22.80;99.90
16863;DHT22;52193;48.216;-1.698;2023-09-12T04:25:31;22.70;99.90
16863;DHT22;52193;48.216;-1.698;2023-09-12T04:27:59;22.80;99.90
16863;DHT22;52193;48.216;-1.698;2023-09-12T04:30:26;22.80;99.90
16863;DHT22;52193;48.216;-1.698;2023-09-12T04:32:53;22.80;99.90
16863;DHT22;52193;48.216;-1.698;2023-09-12T04:35:20;22.80;99.90
16863;DHT22;52193;48.216;-1.698;2023-09-12T04:37:49;22.70;99.90
16863;DHT22;52193;48.216;-1.698;2023-09-12T04:40:16;22.70;99.90
16863;DHT22;52193;48.216;-1.698;2023-09-12T04:42:43;22.70;99.90
16863;DHT22;52193;48.216;-1.698;2023-09-12T04:45:10;22.70;99.90
16863;DHT22;52193;48.216;-1.698;2023-09-12T04:47:37;22.70;99.90
16863;DHT22;52193;48.216;-1.698;2023-09-12T04:50:04;22.70;99.90
16863;DHT22;52193;48.216;-1.698;2023-09-12T04:52:31;22.70;99.90
16863;DHT22;52193;48.216;-1.698;2023-09-12T04:55:00;22.70;99.90
16863;DHT22;52193;48.216;-1.698;2023-09-12T04:57:27;22.70;99.90
16863;DHT22;52193;48.216;-1.698;2023-09-12T04:59:56;22.70;99.90
16863;DHT22;52193;48.216;-1.698;2023-09-12T05:02:23;22.60;99.90
16863;DHT22;52193;48.216;-1.698;2023-09-12T05:04:50;22.60;99.90
16863;DHT22;52193;48.216;-1.698;2023-09-12T05:07:17;22.60;99.90
16863;DHT22;52193;48.216;-1.698;2023-09-12T05:09:44;22.60;99.90
16863;DHT22;52193;48.216;-1.698;2023-09-12T05:12:12;22.60;99.90
16863;DHT22;52193;48.216;-1.698;2023-09-12T05:14:39;22.60;99.90
16863;DHT22;52193;48.216;-1.698;2023-09-12T05:17:06;22.60;99.90
16863;DHT22;52193;48.216;-1.698;2023-09-12T05:19:33;22.60;99.90
16863;DHT22;52193;48.216;-1.698;2023-09-12T05:22:00;22.60;99.90
16863;DHT22;52193;48.216;-1.698;2023-09-12T05:24:27;22.60;99.90
16863;DHT22;52193;48.216;-1.698;2023-09-12T05:26:54;22.60;99.90
16863;DHT22;52193;48.216;-1.698;2023-09-12T05:29:23;22.60;99.90
16863;DHT22;52193;48.216;-1.698;2023-09-12T05:31:50;22.60;99.90
16863;DHT22;52193;48.216;-1.698;2023-09-12T05:34:17;22.60;99.90
16863;DHT22;52193;48.216;-1.698;2023-09-12T05:36:44;22.60;99.90
16863;DHT22;52193;48.216;-1.698;2023-09-12T05:39:10;22.60;99.90
16863;DHT22;52193;48.216;-1.698;2023-09-12T05:41:39;22.60;99.90
16863;DHT22;52193;48.216;-1.698;2023-09-12T05:44:06;22.60;99.90
16863;DHT22;52193;48.216;-1.698;2023-09-12T05:46:34;22.60;99.90
16863;DHT22;52193;48.216;-1.698;2023-09-12T05:49:01;22.60;99.90
16863;DHT22;52193;48.216;-1.698;2023-09-12T05:51:29;22.60;99.90
16863;DHT22;52193;48.216;-1.698;2023-09-12T05:53:56;22.60;99.90
16863;DHT22;52193;48.216;-1.698;2023-09-12T05:56:23;22.50;99.90
16863;DHT22;52193;48.216;-1.698;2023-09-12T05:58:50;22.50;99.90
16863;DHT22;52193;48.216;-1.698;2023-09-12T06:01:17;22.50;99.90
16863;DHT22;52193;48.216;-1.698;2023-09-12T06:03:45;22.50;99.90
16863;DHT22;52193;48.216;-1.698;2023-09-12T06:06:12;22.50;99.90
16863;DHT22;52193;48.216;-1.698;2023-09-12T06:08:39;22.50;99.90
16863;DHT22;52193;48.216;-1.698;2023-09-12T06:11:06;22.50;99.90
16863;DHT22;52193;48.216;-1.698;2023-09-12T06:13:33;22.50;99.90
16863;DHT22;52193;48.216;-1.698;2023-09-12T06:16:03;22.50;99.90
16863;DHT22;52193;48.216;-1.698;2023-09-12T06:18:30;22.50;99.90
16863;DHT22;52193;48.216;-1.698;2023-09-12T06:20:58;22.50;99.90
16863;DHT22;52193;48.216;-1.698;2023-09-12T06:23:27;22.50;99.90
16863;DHT22;52193;48.216;-1.698;2023-09-12T06:25:55;22.50;99.90
16863;DHT22;52193;48.216;-1.698;2023-09-12T06:28:25;22.50;99.90
16863;DHT22;52193;48.216;-1.698;2023-09-12T06:30:52;22.50;99.90
16863;DHT22;52193;48.216;-1.698;2023-09-12T06:33:19;22.50;99.90
16863;DHT22;52193;48.216;-1.698;2023-09-12T06:35:48;22.50;99.90
16863;DHT22;52193;48.216;-1.698;2023-09-12T06:38:16;22.50;99.90
16863;DHT22;52193;48.216;-1.698;2023-09-12T06:40:44;22.50;99.90
16863;DHT22;52193;48.216;-1.698;2023-09-12T06:43:12;22.50;99.90
16863;DHT22;52193;48.216;-1.698;2023-09-12T06:45:40;22.40;99.90
16863;DHT22;52193;48.216;-1.698;2023-09-12T06:48:07;22.50;99.90
16863;DHT22;52193;48.216;-1.698;2023-09-12T06:50:34;22.50;99.90
16863;DHT22;52193;48.216;-1.698;2023-09-12T06:53:03;22.50;99.90
16863;DHT22;52193;48.216;-1.698;2023-09-12T06:55:33;22.50;99.90
16863;DHT22;52193;48.216;-1.698;2023-09-12T06:58:00;22.50;99.90
16863;DHT22;52193;48.216;-1.698;2023-09-12T07:00:26;22.50;99.90
16863;DHT22;52193;48.216;-1.698;2023-09-12T07:02:53;22.50;99.90
16863;DHT22;52193;48.216;-1.698;2023-09-12T07:05:20;22.50;99.90
16863;DHT22;52193;48.216;-1.698;2023-09-12T07:07:47;22.60;99.90
16863;DHT22;52193;48.216;-1.698;2023-09-12T07:10:14;22.60;99.90
16863;DHT22;52193;48.216;-1.698;2023-09-12T07:12:42;22.60;99.90
16863;DHT22;52193;48.216;-1.698;2023-09-12T07:15:10;22.60;99.90
16863;DHT22;52193;48.216;-1.698;2023-09-12T07:17:37;22.60;99.90
16863;DHT22;52193;48.216;-1.698;2023-09-12T07:20:05;22.70;99.90
16863;DHT22;52193;48.216;-1.698;2023-09-12T07:22:37;22.70;99.90
16863;DHT22;52193;48.216;-1.698;2023-09-12T07:25:05;22.70;99.90
16863;DHT22;52193;48.216;-1.698;2023-09-12T07:27:32;22.70;99.90
16863;DHT22;52193;48.216;-1.698;2023-09-12T07:30:01;22.70;99.90
16863;DHT22;52193;48.216;-1.698;2023-09-12T07:32:28;22.70;99.90
16863;DHT22;52193;48.216;-1.698;2023-09-12T07:34:55;22.80;99.90
16863;DHT22;52193;48.216;-1.698;2023-09-12T07:37:22;22.80;99.90
16863;DHT22;52193;48.216;-1.698;2023-09-12T07:39:49;22.80;99.90
16863;DHT22;52193;48.216;-1.698;2023-09-12T07:42:16;22.80;99.90
16863;DHT22;52193;48.216;-1.698;2023-09-12T07:44:43;22.90;99.90
16863;DHT22;52193;48.216;-1.698;2023-09-12T07:47:11;22.80;99.90
16863;DHT22;52193;48.216;-1.698;2023-09-12T07:49:38;22.90;99.90
16863;DHT22;52193;48.216;-1.698;2023-09-12T07:52:06;22.90;99.90
16863;DHT22;52193;48.216;-1.698;2023-09-12T07:54:32;22.90;99.90
16863;DHT22;52193;48.216;-1.698;2023-09-12T07:56:59;22.90;99.90
16863;DHT22;52193;48.216;-1.698;2023-09-12T07:59:26;22.90;99.90
16863;DHT22;52193;48.216;-1.698;2023-09-12T08:01:53;23.00;99.90
16863;DHT22;52193;48.216;-1.698;2023-09-12T08:04:21;23.00;99.90
16863;DHT22;52193;48.216;-1.698;2023-09-12T08:06:48;23.00;99.90
16863;DHT22;52193;48.216;-1.698;2023-09-12T08:09:16;23.00;99.90
16863;DHT22;52193;48.216;-1.698;2023-09-12T08:11:43;23.10;99.90
16863;DHT22;52193;48.216;-1.698;2023-09-12T08:14:10;23.10;99.90
16863;DHT22;52193;48.216;-1.698;2023-09-12T08:16:36;23.20;99.90
16863;DHT22;52193;48.216;-1.698;2023-09-12T08:19:04;23.20;99.90
16863;DHT22;52193;48.216;-1.698;2023-09-12T08:21:32;23.20;99.90
16863;DHT22;52193;48.216;-1.698;2023-09-12T08:23:59;23.30;99.90
16863;DHT22;52193;48.216;-1.698;2023-09-12T08:26:26;23.30;99.90
16863;DHT22;52193;48.216;-1.698;2023-09-12T08:28:54;23.40;99.90
16863;DHT22;52193;48.216;-1.698;2023-09-12T08:31:21;23.40;99.90
16863;DHT22;52193;48.216;-1.698;2023-09-12T08:33:48;23.40;99.90
16863;DHT22;52193;48.216;-1.698;2023-09-12T08:36:14;23.50;99.90
16863;DHT22;52193;48.216;-1.698;2023-09-12T08:38:43;23.50;99.90
16863;DHT22;52193;48.216;-1.698;2023-09-12T08:41:10;23.50;99.90
16863;DHT22;52193;48.216;-1.698;2023-09-12T08:43:37;23.60;99.90
16863;DHT22;52193;48.216;-1.698;2023-09-12T08:46:05;23.60;99.90
16863;DHT22;52193;48.216;-1.698;2023-09-12T08:48:33;23.70;99.90
16863;DHT22;52193;48.216;-1.698;2023-09-12T08:51:01;23.70;99.90
16863;DHT22;52193;48.216;-1.698;2023-09-12T08:53:29;23.80;99.90
16863;DHT22;52193;48.216;-1.698;2023-09-12T08:55:57;23.80;99.90
16863;DHT22;52193;48.216;-1.698;2023-09-12T08:58:26;23.90;99.90
16863;DHT22;52193;48.216;-1.698;2023-09-12T09:00:53;23.90;99.90
16863;DHT22;52193;48.216;-1.698;2023-09-12T09:03:21;23.90;99.90
16863;DHT22;52193;48.216;-1.698;2023-09-12T09:05:49;23.90;99.90
16863;DHT22;52193;48.216;-1.698;2023-09-12T09:08:19;23.90;99.90
16863;DHT22;52193;48.216;-1.698;2023-09-12T09:10:56;24.00;99.90
16863;DHT22;52193;48.216;-1.698;2023-09-12T09:13:24;24.00;99.90
16863;DHT22;52193;48.216;-1.698;2023-09-12T09:16:09;24.10;99.90
16863;DHT22;52193;48.216;-1.698;2023-09-12T09:18:50;24.10;99.90
16863;DHT22;52193;48.216;-1.698;2023-09-12T09:21:17;24.10;99.90
16863;DHT22;52193;48.216;-1.698;2023-09-12T09:23:45;24.10;99.90
16863;DHT22;52193;48.216;-1.698;2023-09-12T09:26:14;24.10;99.90
16863;DHT22;52193;48.216;-1.698;2023-09-12T09:28:41;24.20;99.90
16863;DHT22;52193;48.216;-1.698;2023-09-12T09:31:10;24.20;99.90
16863;DHT22;52193;48.216;-1.698;2023-09-12T09:33:38;24.20;99.90
16863;DHT22;52193;48.216;-1.698;2023-09-12T09:36:06;24.30;99.90
16863;DHT22;52193;48.216;-1.698;2023-09-12T09:38:34;24.30;99.90
16863;DHT22;52193;48.216;-1.698;2023-09-12T09:41:04;24.30;99.90
16863;DHT22;52193;48.216;-1.698;2023-09-12T09:43:33;24.30;99.90
16863;DHT22;52193;48.216;-1.698;2023-09-12T09:46:00;24.30;99.90
16863;DHT22;52193;48.216;-1.698;2023-09-12T09:48:29;24.40;99.90
16863;DHT22;52193;48.216;-1.698;2023-09-12T09:51:00;24.40;99.90
16863;DHT22;52193;48.216;-1.698;2023-09-12T09:53:28;24.40;99.90
16863;DHT22;52193;48.216;-1.698;2023-09-12T09:56:09;24.50;99.90
16863;DHT22;52193;48.216;-1.698;2023-09-12T09:58:45;24.50;99.90
16863;DHT22;52193;48.216;-1.698;2023-09-12T10:01:14;24.50;99.90
16863;DHT22;52193;48.216;-1.698;2023-09-12T10:03:45;24.50;99.90
16863;DHT22;52193;48.216;-1.698;2023-09-12T10:06:15;24.60;99.90
16863;DHT22;52193;48.216;-1.698;2023-09-12T10:08:43;24.60;99.90
16863;DHT22;52193;48.216;-1.698;2023-09-12T10:11:11;24.60;99.90
16863;DHT22;52193;48.216;-1.698;2023-09-12T10:13:43;24.60;99.90
16863;DHT22;52193;48.216;-1.698;2023-09-12T10:16:13;24.70;99.90
16863;DHT22;52193;48.216;-1.698;2023-09-12T10:18:48;24.70;99.90
16863;DHT22;52193;48.216;-1.698;2023-09-12T10:21:21;24.70;99.90
16863;DHT22;52193;48.216;-1.698;2023-09-12T10:23:50;24.80;99.90
16863;DHT22;52193;48.216;-1.698;2023-09-12T10:26:18;24.80;99.90
16863;DHT22;52193;48.216;-1.698;2023-09-12T10:28:47;24.80;99.90
16863;DHT22;52193;48.216;-1.698;2023-09-12T10:31:15;24.90;99.90
16863;DHT22;52193;48.216;-1.698;2023-09-12T10:33:43;24.90;99.90
16863;DHT22;52193;48.216;-1.698;2023-09-12T10:36:12;25.00;99.90
16863;DHT22;52193;48.216;-1.698;2023-09-12T10:38:42;25.00;99.90
16863;DHT22;52193;48.216;-1.698;2023-09-12T10:41:11;25.00;99.70
16863;DHT22;52193;48.216;-1.698;2023-09-12T10:43:40;25.00;99.50
16863;DHT22;52193;48.216;-1.698;2023-09-12T10:46:09;25.10;99.60
16863;DHT22;52193;48.216;-1.698;2023-09-12T10:48:36;25.10;99.50
16863;DHT22;52193;48.216;-1.698;2023-09-12T10:51:07;25.10;99.50
16863;DHT22;52193;48.216;-1.698;2023-09-12T10:53:34;25.20;99.50
16863;DHT22;52193;48.216;-1.698;2023-09-12T10:56:17;25.20;99.40
16863;DHT22;52193;48.216;-1.698;2023-09-12T10:59:09;25.20;99.40
16863;DHT22;52193;48.216;-1.698;2023-09-12T11:01:39;25.20;99.50
16863;DHT22;52193;48.216;-1.698;2023-09-12T11:04:32;25.30;99.40
16863;DHT22;52193;48.216;-1.698;2023-09-12T11:07:30;25.40;99.40
16863;DHT22;52193;48.216;-1.698;2023-09-12T11:10:20;25.40;99.20
16863;DHT22;52193;48.216;-1.698;2023-09-12T11:12:49;25.40;99.00
16863;DHT22;52193;48.216;-1.698;2023-09-12T11:15:17;25.40;98.90
16863;DHT22;52193;48.216;-1.698;2023-09-12T11:17:46;25.50;98.70
16863;DHT22;52193;48.216;-1.698;2023-09-12T11:20:15;25.40;98.50
16863;DHT22;52193;48.216;-1.698;2023-09-12T11:22:43;25.40;98.30
16863;DHT22;52193;48.216;-1.698;2023-09-12T11:25:21;25.40;98.30
16863;DHT22;52193;48.216;-1.698;2023-09-12T11:28:03;25.40;98.30
16863;DHT22;52193;48.216;-1.698;2023-09-12T11:30:31;25.40;98.30
16863;DHT22;52193;48.216;-1.698;2023-09-12T11:33:04;25.40;98.40
16863;DHT22;52193;48.216;-1.698;2023-09-12T11:35:36;25.40;98.40
16863;DHT22;52193;48.216;-1.698;2023-09-12T11:38:03;25.40;98.50
16863;DHT22;52193;48.216;-1.698;2023-09-12T11:40:42;25.40;98.30
16863;DHT22;52193;48.216;-1.698;2023-09-12T11:43:20;25.40;97.90
16863;DHT22;52193;48.216;-1.698;2023-09-12T11:45:48;25.40;97.80
16863;DHT22;52193;48.216;-1.698;2023-09-12T11:48:17;25.40;98.20
16863;DHT22;52193;48.216;-1.698;2023-09-12T11:50:49;25.50;98.00
16863;DHT22;52193;48.216;-1.698;2023-09-12T11:53:20;25.50;97.80
16863;DHT22;52193;48.216;-1.698;2023-09-12T11:55:49;25.60;98.00
16863;DHT22;52193;48.216;-1.698;2023-09-12T11:58:17;25.60;97.80
16863;DHT22;52193;48.216;-1.698;2023-09-12T12:00:45;25.70;97.70
16863;DHT22;52193;48.216;-1.698;2023-09-12T12:03:13;25.70;97.90
16863;DHT22;52193;48.216;-1.698;2023-09-12T12:05:41;25.70;97.80
16863;DHT22;52193;48.216;-1.698;2023-09-12T12:08:10;25.70;97.70
16863;DHT22;52193;48.216;-1.698;2023-09-12T12:10:37;25.70;97.90
16863;DHT22;52193;48.216;-1.698;2023-09-12T12:13:05;25.70;97.90
16863;DHT22;52193;48.216;-1.698;2023-09-12T12:15:33;25.80;98.00
16863;DHT22;52193;48.216;-1.698;2023-09-12T12:18:00;25.80;97.80
16863;DHT22;52193;48.216;-1.698;2023-09-12T12:20:27;25.80;97.70
16863;DHT22;52193;48.216;-1.698;2023-09-12T12:22:57;25.90;97.80
16863;DHT22;52193;48.216;-1.698;2023-09-12T12:25:24;26.00;97.80
16863;DHT22;52193;48.216;-1.698;2023-09-12T12:27:50;26.00;97.80
16863;DHT22;52193;48.216;-1.698;2023-09-12T12:30:18;26.10;97.40
16863;DHT22;52193;48.216;-1.698;2023-09-12T12:32:46;26.20;97.20
16863;DHT22;52193;48.216;-1.698;2023-09-12T12:35:17;26.40;96.70
16863;DHT22;52193;48.216;-1.698;2023-09-12T12:37:45;26.50;96.80
16863;DHT22;52193;48.216;-1.698;2023-09-12T12:40:16;26.70;96.80
16863;DHT22;52193;48.216;-1.698;2023-09-12T12:42:44;26.90;96.30
16863;DHT22;52193;48.216;-1.698;2023-09-12T12:45:13;27.00;96.00
16863;DHT22;52193;48.216;-1.698;2023-09-12T12:47:41;27.20;96.00
16863;DHT22;52193;48.216;-1.698;2023-09-12T12:50:10;27.40;95.90
16863;DHT22;52193;48.216;-1.698;2023-09-12T12:52:37;27.70;95.50
16863;DHT22;52193;48.216;-1.698;2023-09-12T12:55:05;28.10;95.30
16863;DHT22;52193;48.216;-1.698;2023-09-12T12:57:36;28.30;94.50
16863;DHT22;52193;48.216;-1.698;2023-09-12T13:00:06;28.60;93.80
16863;DHT22;52193;48.216;-1.698;2023-09-12T13:02:33;28.80;93.10
16863;DHT22;52193;48.216;-1.698;2023-09-12T13:05:00;29.00;92.60
16863;DHT22;52193;48.216;-1.698;2023-09-12T13:07:27;29.10;92.60
16863;DHT22;52193;48.216;-1.698;2023-09-12T13:09:54;29.30;92.60
16863;DHT22;52193;48.216;-1.698;2023-09-12T13:12:20;29.50;92.00
16863;DHT22;52193;48.216;-1.698;2023-09-12T13:14:49;29.70;91.80
16863;DHT22;52193;48.216;-1.698;2023-09-12T13:17:16;29.80;91.50
16863;DHT22;52193;48.216;-1.698;2023-09-12T13:19:43;29.80;91.30
16863;DHT22;52193;48.216;-1.698;2023-09-12T13:22:10;29.90;91.30
16863;DHT22;52193;48.216;-1.698;2023-09-12T13:24:36;29.90;91.00
16863;DHT22;52193;48.216;-1.698;2023-09-12T13:27:04;29.90;90.90
16863;DHT22;52193;48.216;-1.698;2023-09-12T13:29:31;29.80;90.80
16863;DHT22;52193;48.216;-1.698;2023-09-12T13:31:59;29.90;91.30
16863;DHT22;52193;48.216;-1.698;2023-09-12T13:34:26;29.90;90.90
16863;DHT22;52193;48.216;-1.698;2023-09-12T13:36:53;30.00;90.90
16863;DHT22;52193;48.216;-1.698;2023-09-12T13:39:20;30.10;90.70
16863;DHT22;52193;48.216;-1.698;2023-09-12T13:41:47;30.10;90.40
16863;DHT22;52193;48.216;-1.698;2023-09-12T13:44:16;30.20;90.70
16863;DHT22;52193;48.216;-1.698;2023-09-12T13:46:43;30.20;90.40
16863;DHT22;52193;48.216;-1.698;2023-09-12T13:49:13;30.20;90.00
16863;DHT22;52193;48.216;-1.698;2023-09-12T13:51:40;30.30;90.20
16863;DHT22;52193;48.216;-1.698;2023-09-12T13:54:07;30.40;90.00
16863;DHT22;52193;48.216;-1.698;2023-09-12T13:56:40;30.70;90.10
16863;DHT22;52193;48.216;-1.698;2023-09-12T13:59:07;31.00;89.20
16863;DHT22;52193;48.216;-1.698;2023-09-12T14:01:33;31.30;88.20
16863;DHT22;52193;48.216;-1.698;2023-09-12T14:04:01;31.60;87.40
16863;DHT22;52193;48.216;-1.698;2023-09-12T14:06:29;32.00;87.10
16863;DHT22;52193;48.216;-1.698;2023-09-12T14:08:57;32.40;86.00
16863;DHT22;52193;48.216;-1.698;2023-09-12T14:11:23;32.70;85.00
16863;DHT22;52193;48.216;-1.698;2023-09-12T14:13:50;33.20;84.40
16863;DHT22;52193;48.216;-1.698;2023-09-12T14:16:17;33.40;83.70
16863;DHT22;52193;48.216;-1.698;2023-09-12T14:18:44;33.60;82.90
16863;DHT22;52193;48.216;-1.698;2023-09-12T14:21:11;33.70;82.80
16863;DHT22;52193;48.216;-1.698;2023-09-12T14:23:39;33.70;82.20
16863;DHT22;52193;48.216;-1.698;2023-09-12T14:26:06;33.60;82.00
16863;DHT22;52193;48.216;-1.698;2023-09-12T14:28:33;33.50;82.20
16863;DHT22;52193;48.216;-1.698;2023-09-12T14:31:00;33.50;83.10
16863;DHT22;52193;48.216;-1.698;2023-09-12T14:33:29;33.60;82.10
16863;DHT22;52193;48.216;-1.698;2023-09-12T14:35:56;33.70;81.10
16863;DHT22;52193;48.216;-1.698;2023-09-12T14:38:24;33.80;80.30
16863;DHT22;52193;48.216;-1.698;2023-09-12T14:40:54;34.00;80.20
16863;DHT22;52193;48.216;-1.698;2023-09-12T14:43:21;34.20;79.60
16863;DHT22;52193;48.216;-1.698;2023-09-12T14:45:49;34.60;79.30
16863;DHT22;52193;48.216;-1.698;2023-09-12T14:48:16;34.90;78.00
16863;DHT22;52193;48.216;-1.698;2023-09-12T14:50:42;35.00;77.30
16863;DHT22;52193;48.216;-1.698;2023-09-12T14:53:15;35.10;76.20
16863;DHT22;52193;48.216;-1.698;2023-09-12T14:55:42;35.00;75.90
16863;DHT22;52193;48.216;-1.698;2023-09-12T14:58:10;35.00;76.00
16863;DHT22;52193;48.216;-1.698;2023-09-12T15:00:37;34.80;75.90
16863;DHT22;52193;48.216;-1.698;2023-09-12T15:03:04;34.70;75.90
16863;DHT22;52193;48.216;-1.698;2023-09-12T15:05:31;34.50;76.90
16863;DHT22;52193;48.216;-1.698;2023-09-12T15:07:58;34.60;77.30
16863;DHT22;52193;48.216;-1.698;2023-09-12T15:10:25;34.70;76.70
16863;DHT22;52193;48.216;-1.698;2023-09-12T15:12:52;34.70;76.40
16863;DHT22;52193;48.216;-1.698;2023-09-12T15:15:21;34.70;75.60
16863;DHT22;52193;48.216;-1.698;2023-09-12T15:17:48;34.50;75.70
16863;DHT22;52193;48.216;-1.698;2023-09-12T15:20:15;34.40;76.00
16863;DHT22;52193;48.216;-1.698;2023-09-12T15:22:42;34.00;76.60